PANT Airport Information

Runway Information
Runway 02 Length 5709 ft width 150 ft
Elevation 93 ft Threshold 0 ft Heading 47
Runway 20 Length 5709 ft Width 150 ft
Elevation 94 ft Threshold 0 ft Heading 227
Runway 12 Length 7493 ft width 150 ft
Elevation 119 ft Threshold 0 ft Heading 148
Runway 30 Length 7493 ft Width 150 ft
Elevation 85 ft Threshold 0 ft Heading 328
Airport Frequencies
Type ASOS Name ASOS Frequency 135.75 MHZ
Type CTAF Name CTAF Frequency 122.9 MHZ
Type FSS Name KETCHIKAN Frequency 122.4 MHZ
Airport Navaids
Type VOR-DME Name Annette Island Frequency 117100 KHZ
Type NDB Name Nichols Frequency 266 KHZ
Airport Weather Information & NOTAM
ADDS - METARS form results

(0830 UTC 22 January 2019)
Data provider http://aviationweather.gov/metar/data/
 
METAR text: PANT 220753Z AUTO 14021G39KT 6SM RA BR OVC016 05/04 A2962 RMK PK WND 13042/0740 SLP030 P0012 T00500039 TSNO $ VIA AUTODIAL
Conditions at: PANT (ANNETTE ISLAND , AK, US) observed 0753 UTC 22 January 2019
Temperature: 5.0°C (41°F)
Dewpoint: 3.9°C (39°F) [RH = 93%]
Pressure (altimeter): 29.62 inches Hg (1003.1 mb)
[Sea-level pressure: 1003.0 mb]
Winds: from the SE (140 degrees) at 24 MPH (21 knots; 10.8 m/s)
gusting to 45 MPH (39 knots; 20.1 m/s)
Visibility: 6 miles (10 km)
Ceiling: 1600 feet AGL
Clouds: overcast cloud deck at 1600 feet AGL
Weather: RA BR  (moderate rain, mist)
SOME DATA ABOVE MAY BE INACCURATE!!!
"$" is an indication the sensor requires maintenance

METAR text: PANT 220740Z AUTO 13027G42KT 6SM RA BR OVC016 05/04 A2961 RMK PK WND 13042/0740 P0008 T00500039 TSNO $ VIA AUTODIAL
Conditions at: PANT (ANNETTE ISLAND , AK, US) observed 0740 UTC 22 January 2019
Temperature: 5.0°C (41°F)
Dewpoint: 3.9°C (39°F) [RH = 93%]
Pressure (altimeter): 29.61 inches Hg (1002.8 mb)
Winds: from the SE (130 degrees) at 31 MPH (27 knots; 13.9 m/s)
gusting to 48 MPH (42 knots; 21.6 m/s)
Visibility: 6 miles (10 km)
Ceiling: 1600 feet AGL
Clouds: overcast cloud deck at 1600 feet AGL
Weather: RA BR  (moderate rain, mist)
SOME DATA ABOVE MAY BE INACCURATE!!!
"$" is an indication the sensor requires maintenance